Bo Airport

Jump to: basic info | weather | comments

Related pages: nearby airports | nearby navaids | notams | map

Basic information (top)

Codes: KBS GFBO
Location: lon 7.944400, lat -11.761000, elev 328 ft / 100 m msl
Status: medium_airport
Scheduled airline service: yes
Links: Wikipedia Mobile

Weather (top)

Current conditions for Lungi International Airport 94nm (175km) WNW (rec'd 2014/09/01 10:00Z):

GFLL 011000Z 18005KT 5000 BKN070 FEW026CB 25/24 Q1014 RMK CB-NE

Airport forecast for Lungi International Airport 94nm (175km) WNW (rec'd 2014/09/01 06:18Z):

TAF TAF GFLL 010400Z 0106/0212 12006KT 8000 -RA BKN010 FEW026CB 
      BECMG 0109/0111 27006KT 9999 
      TEMPO 0116/0121 28008KT 9999 SCT014 
      BECMG 0202/0204 24005KT 5000 BR/TSRA BKN009

Latest comments (top)

No comments yet for Bo Airport

More... (top)

See also NOTAMs and nearby airports and navaids, or visit the Bo Airport page at the main OurAirports website..